METAR Data
IDs: Format: Raw Decoded Include TAF

Data at: 1005 UTC 22 Oct 2018

PPIZ 220956Z AUTO 05007KT 10SM OVC017 M07/M08 A2975 RMK AO2 SLP078 T10671078 FZRANO
PPIZ 220856Z AUTO 04006KT 10SM OVC017 M06/M07 A2976 RMK AO2 SLP081 T10611072 56003 FZRANO
PPIZ 220812Z AUTO 05006KT 10SM BKN021 BKN029 OVC034 M06/M07 A2976 RMK AO2 FZRANO
PPIZ 220756Z AUTO 05007KT 10SM SCT028 OVC034 M06/M07 A2976 RMK AO2 SLP081 T10611072 410561111 FZRANO
PPIZ 220727Z AUTO 05008KT 10SM SCT022 OVC037 M06/M07 A2976 RMK AO2 FZRANO
PPIZ 220656Z AUTO 06008KT 10SM OVC018 M06/M07 A2976 RMK AO2 SLP081 T10611072 FZRANO
PPIZ 220524Z AUTO 05012KT 10SM SCT010 OVC020 M07/M08 A2977 RMK AO2 FZRANO
PPIZ 220456Z AUTO 02009KT 10SM OVC010 M07/M08 A2978 RMK AO2 SNE09 CIG 005V013 SLP088 P0000 T10721083 FZRANO
PPIZ 220404Z AUTO 04013KT 9SM -SN OVC005 M07/M08 A2978 RMK AO2 CIG 003V010 P0000 FZRANO
PPIZ 220348Z AUTO 03010KT 2 1/2SM BR BKN005 OVC009 M07/M08 A2978 RMK AO2 CIG 003V006 FZRANO
PPIZ 220339Z AUTO 03010KT 1 3/4SM BR SCT003 OVC009 M08/M09 A2978 RMK AO2 VIS 1 1/4V4 CIG 008V012 FZRANO
PPIZ 220256Z AUTO 04015KT 10SM OVC009 M08/M09 A2977 RMK AO2 SLP086 60000 T10781089 53002 FZRANO
PPIZ 212356Z AUTO 05017KT 9SM OVC007 M07/M08 A2977 RMK AO2 SLP084 60000 T10671078 11067 21094 57001 FZRANO
PPIZ 212315Z AUTO 06019KT 10SM BKN007 M07/M08 A2977 RMK AO2 CIG 002V008 FZRANO
PPIZ 212256Z AUTO 06018KT 10SM SCT007 M07/M09 A2977 RMK AO2 SLP085 T10721089 FZRANO
PPIZ 212156Z AUTO 05017KT 9SM FEW006 M07/M08 A2977 RMK AO2 SNE52 SLP084 P0000 T10721083 FZRANO
PPIZ 212138Z AUTO 05015KT 9SM -SN SCT006 M07/M09 A2977 RMK AO2 P0000 FZRANO
PPIZ 212126Z AUTO 04016KT 5SM -SN BR BKN006 M07/M08 A2977 RMK AO2 CIG 002V007 P0000 FZRANO
PPIZ 212056Z AUTO 05018KT 5SM -SN BR BKN004 M07/M08 A2977 RMK AO2 SNB31 CIG 002V007 SLP085 P0000 60000 T10721083 51008 FZRANO
PPIZ 212038Z AUTO 05015KT 4SM -SN BR SCT004 M08/M09 A2977 RMK AO2 SNB31 P0000 FZRANO
PPIZ 211956Z AUTO 06019KT 10SM CLR M08/M10 A2976 RMK AO2 SLP082 T10831100 FZRANO
PPIZ 211856Z AUTO 06015KT 10SM CLR M09/M11 A2976 RMK AO2 SLP081 T10891106 FZRANO
PPIZ 211756Z AUTO 06016KT 10SM CLR M09/M11 A2975 RMK AO2 SLP077 T10941111 11089 21111 53001 FZRANO
PPIZ 211656Z AUTO 06016KT 10SM CLR M10/M12 A2974 RMK AO2 SLP076 T11001117 FZRANO
PPIZ 211556Z AUTO 05016KT 10SM CLR M11/M12 A2974 RMK AO2 SLP074 T11061122 FZRANO
PPIZ 211356Z AUTO 05012KT 10SM CLR M10/M12 A2975 RMK AO2 SLP077 T11001117 FZRANO
PPIZ 211256Z AUTO 04013KT 10SM CLR M10/M11 A2975 RMK AO2 SLP079 T11001111 FZRANO
PPIZ 211156Z AUTO 04012KT 10SM CLR M09/M10 A2976 RMK AO2 SLP081 T10891100 11039 21089 58008 FZRANO
PPIZ 211056Z AUTO 04014KT 10SM SCT085 M07/M08 A2976 RMK AO2 SLP083 T10721078 FZRANO
PPIZ 210956Z AUTO 05015KT 10SM BKN085 M07/M07 A2978 RMK AO2 SLP087 T10671072 FZRANO
PPIZ 210856Z AUTO 05015KT 10SM OVC085 M06/M07 A2978 RMK AO2 SLP089 T10611072 55000 FZRANO
PPIZ 210756Z AUTO 05014KT 10SM SCT090 M06/M06 A2978 RMK AO2 SLP088 T10561061 410221056 FZRANO
PPIZ 210656Z AUTO 04011KT 10SM FEW007 BKN090 M04/M05 A2978 RMK AO2 SLP088 T10441050 FZRANO
PPIZ 210646Z AUTO 04010KT 10SM FEW007 OVC090 M04/M05 A2978 RMK AO2 FZRANO
PPIZ 210635Z AUTO 04013KT 10SM BKN007 OVC090 M04/M05 A2978 RMK AO2 FZRANO
PPIZ 210616Z AUTO 05012KT 10SM SCT007 OVC090 M04/M05 A2978 RMK AO2 FZRANO
PPIZ 210556Z AUTO 05011KT 10SM OVC090 M04/M05 A2978 RMK AO2 SLP089 T10441050 11028 21044 51002 FZRANO
PPIZ 210421Z AUTO 04014KT 10SM OVC005 M04/M05 A2978 RMK AO2 CIG 002V007 FZRANO
PPIZ 210413Z AUTO 04014KT 10SM BKN003 OVC007 M04/M05 A2978 RMK AO2 CIG 002V006 FZRANO
PPIZ 210325Z AUTO 04011KT 10SM BKN005 OVC090 M04/M05 A2977 RMK AO2 FZRANO
PPIZ 210256Z AUTO 04013KT 10SM FEW007 OVC090 M04/M04 A2977 RMK AO2 SLP084 T10391044 51000 FZRANO
PPIZ 210254Z AUTO 04013KT 10SM FEW007 OVC090 M04/M04 A2977 RMK AO2 FZRANO
PPIZ 210156Z AUTO 04014KT 10SM OVC090 M03/M04 A2977 RMK AO2 SLP084 T10331044 FZRANO
PPIZ 210056Z AUTO 04012KT 10SM OVC090 M03/M04 A2977 RMK AO2 SLP084 T10281039 FZRANO
PPIZ 202356Z AUTO 04012KT 10SM OVC090 M03/M04 A2977 RMK AO2 SLP085 T10281039 11028 21033 58001 FZRANO
PPIZ 202256Z AUTO 04012KT 10SM OVC090 M03/M03 A2977 RMK AO2 SLP086 T10281033 FZRANO